createdAt,value
2019-01-04T00:04:16.582Z,102900.52
2019-01-04T00:06:45.180Z,102900.17
2019-01-04T00:09:13.758Z,102905.14
2019-01-04T00:11:42.322Z,102910.06
2019-01-04T00:14:10.963Z,102901.41
2019-01-04T00:16:39.530Z,102903.94
2019-01-04T00:19:08.176Z,102892.65
2019-01-04T00:21:56.079Z,102893.81
2019-01-04T00:24:24.667Z,102893.81
2019-01-04T00:26:53.246Z,102893.23
2019-01-04T00:29:21.822Z,102891.80
2019-01-04T00:31:50.382Z,102895.28
2019-01-04T00:34:18.958Z,102891.45
2019-01-04T00:36:47.525Z,102892.34
2019-01-04T00:39:16.112Z,102890.17
2019-01-04T00:41:44.682Z,102891.06
2019-01-04T00:44:13.259Z,102895.02
2019-01-04T00:46:41.822Z,102897.19
2019-01-04T00:49:10.448Z,102887.02
2019-01-04T00:51:38.988Z,102885.86
2019-01-04T00:54:07.643Z,102873.17
2019-01-04T00:56:56.987Z,102879.03
2019-01-04T00:59:46.357Z,102875.18
2019-01-04T01:02:35.714Z,102875.92
2019-01-04T01:05:25.178Z,102874.45
2019-01-04T01:08:32.376Z,102881.59
2019-01-04T01:11:39.583Z,102871.53
2019-01-04T01:14:46.788Z,102873.98
2019-01-04T01:17:36.129Z,102879.36
2019-01-04T01:20:43.354Z,102884.22
2019-01-04T01:23:32.786Z,102892.06
2019-01-04T01:26:22.161Z,102887.90
2019-01-04T01:29:11.630Z,102889.37
2019-01-04T01:32:00.990Z,102888.05
2019-01-04T01:35:08.199Z,102877.98
2019-01-04T01:38:15.345Z,102879.77
2019-01-04T01:41:22.573Z,102885.52
2019-01-04T01:44:29.761Z,102877.77
2019-01-04T01:47:19.142Z,102872.53
2019-01-04T01:50:26.353Z,102869.80
2019-01-04T01:55:48.154Z,102867.16
2019-01-04T01:58:16.727Z,102869.83
2019-01-04T02:00:45.314Z,102861.91
2019-01-04T02:03:13.940Z,102857.16
2019-01-04T02:05:42.531Z,102848.20
2019-01-04T02:08:11.109Z,102853.56
2019-01-04T02:10:39.705Z,102850.67
2019-01-04T02:13:08.266Z,102860.84
2019-01-04T02:15:36.844Z,102854.24
2019-01-04T02:18:05.411Z,102854.42
2019-01-04T02:20:33.997Z,102852.81
2019-01-04T02:23:02.562Z,102845.28
2019-01-04T02:25:31.143Z,102839.94
2019-01-04T02:27:59.699Z,102835.48
2019-01-04T02:30:28.287Z,102832.09
2019-01-04T02:32:56.849Z,102827.66
2019-01-04T02:35:25.430Z,102826.42
2019-01-04T02:37:53.998Z,102828.70
2019-01-04T02:40:22.579Z,102823.34
2019-01-04T02:42:51.210Z,102821.53
2019-01-04T02:45:19.813Z,102814.72
2019-01-04T02:47:48.382Z,102813.54
2019-01-04T02:50:16.972Z,102803.80
2019-01-04T02:52:45.531Z,102803.41
2019-01-04T02:55:14.087Z,102801.20
2019-01-04T02:57:42.674Z,102793.17
2019-01-04T03:00:11.288Z,102791.25
2019-01-04T03:02:39.875Z,102789.71
2019-01-04T03:05:08.521Z,102783.80
2019-01-04T03:07:37.108Z,102783.61
2019-01-04T03:10:05.735Z,102786.97
2019-01-04T03:12:34.326Z,102789.17
2019-01-04T03:15:02.892Z,102783.90
2019-01-04T03:20:27.536Z,102769.37
2019-01-04T03:22:56.108Z,102771.70
2019-01-04T03:25:24.676Z,102760.61
2019-01-04T03:27:53.260Z,102763.45
2019-01-04T03:30:21.823Z,102751.58
2019-01-04T03:32:50.543Z,102752.89
2019-01-04T03:35:19.141Z,102745.08
2019-01-04T03:37:47.703Z,102740.48
2019-01-04T03:40:16.262Z,102739.16
2019-01-04T03:42:44.849Z,102733.09
2019-01-04T03:45:13.413Z,102726.72
2019-01-04T03:47:42.006Z,102723.46
2019-01-04T03:50:10.647Z,102719.01
2019-01-04T03:52:39.231Z,102710.45
2019-01-04T03:55:07.902Z,102702.64
2019-01-04T03:57:36.455Z,102696.44
2019-01-04T04:00:25.810Z,102689.58
2019-01-04T04:02:54.395Z,102682.84
2019-01-04T04:05:22.953Z,102681.48
2019-01-04T04:07:51.531Z,102683.41
2019-01-04T04:10:20.076Z,102679.64
2019-01-04T04:12:48.668Z,102676.70
2019-01-04T04:15:17.255Z,102675.13
2019-01-04T04:17:45.832Z,102665.95
2019-01-04T04:20:14.394Z,102664.72
2019-01-04T04:22:42.983Z,102664.13
2019-01-04T04:25:11.544Z,102655.39
2019-01-04T04:27:40.101Z,102653.64
2019-01-04T04:30:29.464Z,102650.97
2019-01-04T04:32:58.085Z,102658.85
2019-01-04T04:35:26.663Z,102654.46
2019-01-04T04:37:55.232Z,102654.77
2019-01-04T04:40:23.803Z,102663.30
2019-01-04T04:42:52.359Z,102671.36
2019-01-04T04:45:20.952Z,102663.63
2019-01-04T04:47:49.510Z,102646.89
2019-01-04T04:50:18.102Z,102652.81
2019-01-04T04:52:46.666Z,102646.77
2019-01-04T04:55:15.270Z,102648.22
2019-01-04T04:57:43.822Z,102644.84
2019-01-04T05:00:12.410Z,102641.64
2019-01-04T05:02:40.977Z,102641.52
2019-01-04T05:05:09.580Z,102636.80
2019-01-04T05:07:38.133Z,102646.00
2019-01-04T05:10:06.771Z,102637.95
2019-01-04T05:12:35.333Z,102629.67
2019-01-04T05:15:03.988Z,102631.81
2019-01-04T05:17:32.560Z,102632.70
2019-01-04T05:20:01.154Z,102621.41
2019-01-04T05:22:29.753Z,102626.02
2019-01-04T05:24:58.347Z,102616.96
2019-01-04T05:27:26.902Z,102610.70
2019-01-04T05:29:55.484Z,102618.86
2019-01-04T05:32:24.040Z,102631.30
2019-01-04T05:34:52.610Z,102634.13
2019-01-04T05:37:21.209Z,102623.28
2019-01-04T05:39:49.778Z,102611.00
2019-01-04T05:42:18.367Z,102609.74
2019-01-04T05:44:46.942Z,102606.34
2019-01-04T05:47:15.533Z,102598.14
2019-01-04T05:49:44.090Z,102594.64
2019-01-04T05:52:12.678Z,102591.05
2019-01-04T05:54:41.247Z,102590.34
2019-01-04T05:57:09.845Z,102581.89
2019-01-04T05:59:38.413Z,102575.30
2019-01-04T06:02:07.015Z,102576.19
2019-01-04T06:04:35.583Z,102572.66
2019-01-04T06:07:04.180Z,102567.83
2019-01-04T06:09:32.747Z,102574.06
2019-01-04T06:12:01.346Z,102581.47
2019-01-04T06:14:29.901Z,102579.87
2019-01-04T06:16:58.493Z,102582.97
2019-01-04T06:19:27.060Z,102576.52
2019-01-04T06:21:55.651Z,102565.37
2019-01-04T06:24:24.200Z,102556.98
2019-01-04T06:26:52.786Z,102557.05
2019-01-04T06:29:21.351Z,102549.53
2019-01-04T06:31:49.919Z,102544.67
2019-01-04T06:34:18.511Z,102539.42
2019-01-04T06:36:47.072Z,102547.00
2019-01-04T06:39:15.662Z,102551.77
2019-01-04T06:41:44.256Z,102548.75
2019-01-04T06:44:12.854Z,102547.09
2019-01-04T06:47:20.001Z,102545.88
2019-01-04T06:49:48.582Z,102538.28
2019-01-04T06:52:17.154Z,102548.35
2019-01-04T06:55:24.321Z,102540.42
2019-01-04T06:57:52.915Z,102539.59
2019-01-04T07:00:21.479Z,102525.98
2019-01-04T07:02:50.105Z,102530.03
2019-01-04T07:05:18.661Z,102531.38
2019-01-04T07:07:47.238Z,102524.52
2019-01-04T07:10:15.818Z,102528.02
2019-01-04T07:12:44.375Z,102532.36
2019-01-04T07:15:12.973Z,102532.81
2019-01-04T07:17:41.534Z,102528.28
2019-01-04T07:20:10.118Z,102519.50
2019-01-04T07:22:38.684Z,102516.59
2019-01-04T07:25:07.276Z,102508.23
2019-01-04T07:27:35.837Z,102500.12
2019-01-04T07:30:25.207Z,102497.87
2019-01-04T07:32:53.762Z,102494.46
2019-01-04T07:35:22.346Z,102498.08
2019-01-04T07:37:50.895Z,102497.99
2019-01-04T07:40:19.489Z,102499.74
2019-01-04T07:42:48.049Z,102493.08
2019-01-04T07:45:16.643Z,102491.13
2019-01-04T07:47:45.201Z,102496.70
2019-01-04T07:50:13.784Z,102494.52
2019-01-04T07:53:01.465Z,102495.38
2019-01-04T07:55:30.062Z,102490.74
2019-01-04T07:57:58.647Z,102482.36
2019-01-04T08:00:27.228Z,102484.67
2019-01-04T08:03:14.982Z,102478.21
2019-01-04T08:05:43.562Z,102472.41
2019-01-04T08:08:12.137Z,102470.28
2019-01-04T08:10:40.712Z,102459.72
2019-01-04T08:13:09.283Z,102459.73
2019-01-04T08:15:37.870Z,102452.78
2019-01-04T08:18:06.434Z,102451.98
2019-01-04T08:20:35.015Z,102429.96
2019-01-04T08:23:03.568Z,102443.27
2019-01-04T08:25:32.151Z,102442.82
2019-01-04T08:28:00.739Z,102443.88
2019-01-04T08:30:29.322Z,102445.64
2019-01-04T08:32:57.889Z,102448.41
2019-01-04T08:35:26.471Z,102441.00
2019-01-04T08:37:55.050Z,102434.31
2019-01-04T08:40:23.633Z,102437.02
2019-01-04T08:42:52.226Z,102434.84
2019-01-04T08:45:20.787Z,102438.00
2019-01-04T08:47:49.370Z,102433.48
2019-01-04T08:50:17.932Z,102417.13
2019-01-04T08:52:46.517Z,102422.64
2019-01-04T08:55:35.902Z,102421.17
2019-01-04T08:58:04.481Z,102423.57
2019-01-04T09:00:33.046Z,102428.91
2019-01-04T09:03:01.632Z,102429.64
2019-01-04T09:05:30.190Z,102416.67
2019-01-04T09:07:58.767Z,102405.59
2019-01-04T09:10:27.327Z,102401.77
2019-01-04T09:12:55.909Z,102396.48
2019-01-04T09:15:24.456Z,102390.91
2019-01-04T09:17:53.049Z,102383.50
2019-01-04T09:20:21.606Z,102381.29
2019-01-04T09:22:50.192Z,102373.89
2019-01-04T09:25:38.082Z,102371.25
2019-01-04T09:28:06.663Z,102373.88
2019-01-04T09:30:35.282Z,102375.70
2019-01-04T09:33:03.863Z,102366.48
2019-01-04T09:35:32.423Z,102367.80
2019-01-04T09:38:01.004Z,102366.55
2019-01-04T09:40:29.561Z,102355.61
2019-01-04T09:42:58.145Z,102351.20
2019-01-04T09:45:26.719Z,102345.37
2019-01-04T09:47:55.295Z,102335.37
2019-01-04T09:50:23.864Z,102322.58
2019-01-04T09:52:52.463Z,102315.09
2019-01-04T09:55:21.032Z,102307.61
2019-01-04T09:57:49.684Z,102306.72
2019-01-04T10:00:18.209Z,102307.16
2019-01-04T10:05:20.710Z,102306.84
2019-01-04T10:07:49.267Z,102291.00
2019-01-04T10:10:17.861Z,102294.16
2019-01-04T10:12:46.428Z,102276.63
2019-01-04T10:15:35.800Z,102272.98
2019-01-04T10:18:04.359Z,102268.17
2019-01-04T10:20:32.951Z,102267.24
2019-01-04T10:23:01.515Z,102259.86
2019-01-04T10:25:30.102Z,102253.64
2019-01-04T10:27:58.682Z,102255.90
2019-01-04T10:30:27.410Z,102238.27
2019-01-04T10:32:56.038Z,102235.62
2019-01-04T10:35:24.626Z,102238.77
2019-01-04T10:37:53.186Z,102214.13
2019-01-04T10:40:21.776Z,102207.06
2019-01-04T10:42:50.335Z,102201.84
2019-01-04T10:45:18.912Z,102193.06
2019-01-04T10:47:47.467Z,102191.73
2019-01-04T10:50:16.048Z,102178.00
2019-01-04T10:52:44.610Z,102172.27
2019-01-04T10:55:13.224Z,102152.46
2019-01-04T10:57:41.787Z,102150.27
2019-01-04T11:00:31.163Z,102145.02
2019-01-04T11:02:59.722Z,102142.03
2019-01-04T11:05:28.315Z,102131.80
2019-01-04T11:07:56.882Z,102121.30
2019-01-04T11:10:25.471Z,102119.97
2019-01-04T11:12:54.025Z,102109.43
2019-01-04T11:15:22.605Z,102097.53
2019-01-04T11:17:51.163Z,102093.11
2019-01-04T11:20:40.065Z,102097.57
2019-01-04T11:23:29.446Z,102104.23
2019-01-04T11:26:36.645Z,102094.03
2019-01-04T11:29:43.846Z,102084.77
2019-01-04T11:32:33.298Z,102071.93
2019-01-04T11:35:40.479Z,102071.53
2019-01-04T11:38:29.906Z,102064.08
2019-01-04T11:41:19.271Z,102046.87
2019-01-04T11:44:08.742Z,102031.90
2019-01-04T11:46:58.097Z,102019.55
2019-01-04T11:49:47.548Z,102013.41
2019-01-04T11:52:36.924Z,102002.41
2019-01-04T11:55:26.291Z,101993.58
2019-01-04T11:57:54.897Z,101986.91
2019-01-04T12:00:23.439Z,101975.92
2019-01-04T12:02:52.025Z,101972.91
2019-01-04T12:05:20.578Z,101968.45
2019-01-04T12:07:49.155Z,101969.30
2019-01-04T12:10:17.716Z,101954.77
2019-01-04T12:12:46.301Z,101961.83
2019-01-04T12:15:14.877Z,101958.73
2019-01-04T12:17:43.468Z,101967.60
2019-01-04T12:20:12.024Z,101968.48
2019-01-04T12:22:40.608Z,101965.36
2019-01-04T12:25:09.174Z,101981.70
2019-01-04T12:27:37.774Z,101988.35
2019-01-04T12:30:27.123Z,101995.02
2019-01-04T12:32:55.713Z,101993.25
2019-01-04T12:35:24.792Z,101991.05
2019-01-04T12:37:54.582Z,101988.83
2019-01-04T12:40:23.166Z,101991.48
2019-01-04T12:42:51.747Z,101992.36
2019-01-04T12:45:40.931Z,101989.27
2019-01-04T12:48:09.512Z,101985.78
2019-01-04T12:50:38.072Z,101982.69
2019-01-04T12:53:06.651Z,101995.02
2019-01-04T12:55:35.218Z,101981.80
2019-01-04T12:58:03.801Z,101982.69
2019-01-04T13:00:32.396Z,101981.77
2019-01-04T13:03:00.955Z,101973.95
2019-01-04T13:05:29.567Z,101985.81
2019-01-04T13:07:58.108Z,101988.46
2019-01-04T13:10:26.698Z,101984.97
2019-01-04T13:12:55.257Z,101975.69
2019-01-04T13:15:23.853Z,101970.77
2019-01-04T13:17:52.412Z,101977.02
2019-01-04T13:20:21.124Z,101976.98
2019-01-04T13:22:49.678Z,101981.88
2019-01-04T13:25:18.261Z,101970.83
2019-01-04T13:27:46.827Z,101971.78
2019-01-04T13:30:15.415Z,101969.58
2019-01-04T13:32:43.988Z,101957.65
2019-01-04T13:35:12.570Z,101958.06
2019-01-04T13:37:41.145Z,101961.15
2019-01-04T13:40:09.726Z,101951.84
2019-01-04T13:42:38.282Z,101940.39
2019-01-04T13:45:27.656Z,101948.41
2019-01-04T13:47:56.209Z,101947.05
2019-01-04T13:50:24.800Z,101945.72
2019-01-04T13:52:53.378Z,101932.47
2019-01-04T13:55:21.990Z,101933.80
2019-01-04T13:57:50.538Z,101933.39
2019-01-04T14:03:06.901Z,101931.59
2019-01-04T14:05:35.485Z,101926.79
2019-01-04T14:08:04.039Z,101922.78
2019-01-04T14:10:32.621Z,101917.04
2019-01-04T14:13:01.189Z,101905.14
2019-01-04T14:15:29.787Z,101901.64
2019-01-04T14:17:58.328Z,101901.64
2019-01-04T14:20:26.882Z,101905.61
2019-01-04T14:22:55.480Z,101887.92
2019-01-04T14:25:24.045Z,101910.45
2019-01-04T14:27:52.626Z,101908.29
2019-01-04T14:33:10.275Z,101920.16
2019-01-04T14:35:38.822Z,101910.49
2019-01-04T14:38:07.416Z,101906.08
2019-01-04T14:40:36.063Z,101910.05
2019-01-04T14:43:04.648Z,101915.75
2019-01-04T14:45:33.208Z,101912.23
2019-01-04T14:48:01.883Z,101919.34
2019-01-04T14:50:30.473Z,101921.09
2019-01-04T14:52:59.056Z,101913.12
2019-01-04T14:55:27.615Z,101897.69
2019-01-04T14:57:56.201Z,101890.64
2019-01-04T15:00:24.784Z,101884.45
2019-01-04T15:02:53.355Z,101876.51
2019-01-04T15:05:21.906Z,101868.13
2019-01-04T15:07:50.493Z,101862.85
2019-01-04T15:10:19.039Z,101866.37
2019-01-04T15:12:47.622Z,101861.53
2019-01-04T15:15:16.202Z,101859.23
2019-01-04T15:17:44.830Z,101863.25
2019-01-04T15:20:13.345Z,101872.11
2019-01-04T15:22:41.942Z,101873.46
2019-01-04T15:25:10.502Z,101874.36
2019-01-04T15:27:39.090Z,101878.34
2019-01-04T15:33:21.677Z,101858.02
2019-01-04T15:35:50.206Z,101846.48
2019-01-04T15:38:18.793Z,101846.06
2019-01-04T15:40:47.359Z,101857.56
2019-01-04T15:43:15.943Z,101853.17
2019-01-04T15:45:44.504Z,101850.05
2019-01-04T15:48:13.093Z,101852.72
2019-01-04T15:50:41.665Z,101856.67
2019-01-04T15:53:10.258Z,101856.27
2019-01-04T15:55:38.812Z,101860.70
2019-01-04T15:58:07.408Z,101865.98
2019-01-04T16:00:35.984Z,101856.28
2019-01-04T16:03:04.540Z,101860.31
2019-01-04T16:05:33.150Z,101858.08
2019-01-04T16:08:01.716Z,101865.16
2019-01-04T16:10:30.503Z,101857.66
2019-01-04T16:12:59.068Z,101852.35
2019-01-04T16:15:27.687Z,101856.80
2019-01-04T16:17:56.484Z,101849.27
2019-01-04T16:20:25.091Z,101848.81
2019-01-04T16:22:53.651Z,101845.28
2019-01-04T16:25:22.255Z,101848.38
2019-01-04T16:27:50.812Z,101853.25
2019-01-04T16:30:19.622Z,101849.72
2019-01-04T16:32:48.189Z,101853.27
2019-01-04T16:35:16.768Z,101849.30
2019-01-04T16:37:45.331Z,101851.09
2019-01-04T16:40:13.915Z,101841.79
2019-01-04T16:42:42.488Z,101841.79
2019-01-04T16:45:11.072Z,101836.48
2019-01-04T16:47:39.697Z,101840.45
2019-01-04T16:50:29.066Z,101837.37
2019-01-04T16:55:51.014Z,101832.96
2019-01-04T16:58:19.570Z,101831.19
2019-01-04T17:00:48.158Z,101832.51
2019-01-04T17:03:16.731Z,101835.17
2019-01-04T17:05:45.319Z,101835.17
2019-01-04T17:08:13.952Z,101842.23
2019-01-04T17:10:42.566Z,101833.37
2019-01-04T17:13:11.138Z,101843.11
2019-01-04T17:15:39.723Z,101840.03
2019-01-04T17:18:27.401Z,101851.53
2019-01-04T17:20:55.983Z,101842.27
2019-01-04T17:23:24.550Z,101847.98
2019-01-04T17:25:53.137Z,101842.23
2019-01-04T17:28:21.690Z,101854.20
2019-01-04T17:30:50.322Z,101852.43
2019-01-04T17:33:18.888Z,101850.66
2019-01-04T17:35:47.456Z,101850.20
2019-01-04T17:38:16.090Z,101855.08
2019-01-04T17:40:44.653Z,101861.72
2019-01-04T17:43:13.229Z,101861.29
2019-01-04T17:45:41.786Z,101866.59
2019-01-04T17:48:10.376Z,101865.27
2019-01-04T17:50:38.938Z,101861.72
2019-01-04T17:53:07.527Z,101859.52
2019-01-04T17:55:36.093Z,101853.31
2019-01-04T17:58:04.976Z,101857.29
2019-01-04T18:00:33.559Z,101851.09
2019-01-04T18:03:02.131Z,101851.09
2019-01-04T18:05:30.688Z,101856.41
2019-01-04T18:07:59.265Z,101864.80
2019-01-04T18:10:27.820Z,101856.83
2019-01-04T18:12:56.408Z,101858.62
2019-01-04T18:15:24.973Z,101861.25
2019-01-04T18:17:58.568Z,101863.92
2019-01-04T18:20:23.835Z,101865.67
2019-01-04T18:22:52.421Z,101865.23
2019-01-04T18:25:20.981Z,101864.80
2019-01-04T18:27:49.568Z,101866.59
2019-01-04T18:30:18.134Z,101869.22
2019-01-04T18:32:46.706Z,101857.75
2019-01-04T18:35:15.270Z,101859.95
2019-01-04T18:37:43.853Z,101851.56
2019-01-04T18:40:12.409Z,101849.34
2019-01-04T18:42:40.990Z,101850.25
2019-01-04T18:45:09.622Z,101844.50
2019-01-04T18:47:57.383Z,101852.91
2019-01-04T18:53:13.465Z,101841.42
2019-01-04T18:55:42.024Z,101840.95
2019-01-04T18:58:10.608Z,101842.73
2019-01-04T19:00:39.193Z,101843.63
2019-01-04T19:03:07.778Z,101846.70
2019-01-04T19:05:36.362Z,101836.11
2019-01-04T19:08:04.936Z,101847.16
2019-01-04T19:10:52.830Z,101834.32
2019-01-04T19:13:26.665Z,101844.53
2019-01-04T19:15:51.692Z,101851.16
2019-01-04T19:18:20.244Z,101842.77
2019-01-04T19:20:48.828Z,101840.10
2019-01-04T19:23:17.393Z,101839.21
2019-01-04T19:25:45.985Z,101840.09
2019-01-04T19:28:14.549Z,101822.83
2019-01-04T19:31:02.244Z,101827.25
2019-01-04T19:33:30.829Z,101823.28
2019-01-04T19:35:59.407Z,101815.31
2019-01-04T19:41:15.428Z,101811.33
2019-01-04T19:43:43.990Z,101810.00
2019-01-04T19:46:12.566Z,101804.25
2019-01-04T19:49:02.174Z,101805.58
2019-01-04T19:51:31.203Z,101808.67
2019-01-04T19:53:59.772Z,101798.96
2019-01-04T19:56:28.357Z,101791.42
2019-01-04T19:58:56.936Z,101788.77
2019-01-04T20:01:25.545Z,101779.48
2019-01-04T20:03:54.110Z,101768.42
2019-01-04T20:07:02.932Z,101770.62
2019-01-04T20:10:29.779Z,101771.51
2019-01-04T20:17:08.970Z,101760.47
2019-01-04T20:20:17.489Z,101751.17
2019-01-04T20:23:05.173Z,101740.57
2019-01-04T20:28:28.376Z,101745.87
2019-01-04T20:31:16.118Z,101732.59
2019-01-04T20:34:03.849Z,101733.91
2019-01-04T20:36:51.739Z,101722.43
2019-01-04T20:42:28.528Z,101718.02
2019-01-04T20:45:16.220Z,101717.56
2019-01-04T20:48:03.954Z,101720.22
2019-01-04T20:53:27.075Z,101696.80
2019-01-04T20:56:14.808Z,101702.55
2019-01-04T21:01:51.585Z,101699.88
2019-01-04T21:04:39.291Z,101699.42
2019-01-04T21:10:02.538Z,101686.14
2019-01-04T21:12:50.318Z,101688.81
2019-01-04T21:15:38.037Z,101697.20
2019-01-04T21:18:25.751Z,101688.37
2019-01-04T21:21:13.463Z,101688.78
2019-01-04T21:24:01.174Z,101681.28
2019-01-04T21:29:34.594Z,101675.50
2019-01-04T21:32:22.390Z,101682.16
2019-01-04T21:35:10.084Z,101682.58
2019-01-04T21:37:57.836Z,101675.48
2019-01-04T21:40:45.583Z,101679.05
2019-01-04T21:43:33.315Z,101677.28
2019-01-04T21:46:21.140Z,101670.18
2019-01-04T21:49:08.956Z,101674.16
2019-01-04T21:51:56.707Z,101667.53
2019-01-04T21:57:30.899Z,101670.15
2019-01-04T22:02:54.072Z,101663.08
2019-01-04T22:05:41.767Z,101646.25
2019-01-04T22:11:04.996Z,101633.84
2019-01-04T22:13:52.715Z,101640.91
2019-01-04T22:16:40.410Z,101638.70
2019-01-04T22:19:28.143Z,101632.92
2019-01-04T22:22:15.827Z,101632.92
2019-01-04T22:25:03.643Z,101628.93
2019-01-04T22:27:51.374Z,101636.89
2019-01-04T22:30:39.102Z,101640.41
2019-01-04T22:33:26.807Z,101628.47
2019-01-04T22:36:14.632Z,101620.95
2019-01-04T22:39:02.555Z,101608.09
2019-01-04T22:44:39.446Z,101601.88
2019-01-04T22:50:20.954Z,101590.78
2019-01-04T22:55:55.573Z,101588.11
2019-01-04T22:58:43.337Z,101592.98
2019-01-04T23:04:06.708Z,101581.00
2019-01-04T23:06:54.550Z,101580.11
2019-01-04T23:12:31.390Z,101568.12
2019-01-04T23:15:19.972Z,101563.28
2019-01-04T23:20:56.867Z,101554.83
2019-01-04T23:26:33.633Z,101532.69
2019-01-04T23:29:21.362Z,101526.92
2019-01-04T23:32:09.094Z,101530.95
2019-01-04T23:34:56.808Z,101523.40
2019-01-04T23:37:44.514Z,101515.41
2019-01-04T23:40:32.239Z,101503.00
2019-01-04T23:43:19.983Z,101506.52
2019-01-04T23:48:43.042Z,101493.22
2019-01-04T23:51:32.265Z,101499.87
2019-01-04T23:54:20.009Z,101489.64
2019-01-04T23:57:07.758Z,101484.33
2019-01-04T23:59:55.539Z,101473.25
